In Rescue
 
Open Full Screen Window  High Contrast Mode
July 22, 2019 10:08 PM CDT
Weather Information
Wind Direction
  ---
Wind Speed
  00 kt (0 mph)
Wind Gust
  00 kt (0 mph)
Altimeter
30.19 in
Visibility
7 SM
Temperature
13° C
55° F
Dewpoint
13° C
55° F
Humidity
100%
1hr Rain Fall
00.00 in.
24hr Rain Fall
00.00 in.
Sky Condition
Clear
VFR

METAR KCDD 230308Z AUTO 00000KT 7SM CLR 13/13 A3019 RMK AO2

FAA Disclaimer: The data displayed is for advisory purposes only and is not to be used for flight planning or operations.